Time;durP1;ratioP1;P1;durP2;ratioP2;P2;SDS_P1;SDS_P2;PMS_P1;PMS_P2;Temp;Humidity;BMP_temperature;BMP_pressure;BME280_temperature;BME280_humidity;BME280_pressure;Samples;Min_cycle;Max_cycle;Signal;HPM_P1;HPM_P2
2022/08/09 00:01:10;;;;;;;;;;;;;;;;;;4955744;28;19928;-42
2022/08/09 00:03:35;;;;;;;;;;;;;;;;;;4974378;28;19914;-42
2022/08/09 00:06:00;;;;;;;;;;;;;;;;;;4974066;28;20341;-43
2022/08/09 00:08:26;;;;;;;;;;;;;;;;;;4974029;28;19920;-43
2022/08/09 00:10:51;;;;;;;;;;;;;;;;;;4974156;28;19906;-43
2022/08/09 00:13:16;;;;;;;;;;;;;;;;;;4974128;28;20368;-43
2022/08/09 00:15:42;;;;;;;;;;;;;;;;;;4973750;28;19955;-43
2022/08/09 00:18:07;;;;;;;;;;;;;;;;;;4973752;28;19910;-43
2022/08/09 00:20:32;;;;;;;;;;;;;;;;;;4973723;28;19996;-43
2022/08/09 00:22:58;;;;;;;;;;;;;;;;;;4973597;28;19918;-43
2022/08/09 00:25:23;;;;;;;;;;;;;;;;;;4973698;28;19964;-42
2022/08/09 00:27:48;;;;;;;;;;;;;;;;;;4973809;28;19918;-42
2022/08/09 00:30:13;;;;;;;;;;;;;;;;;;4973917;28;19985;-43
2022/08/09 00:32:39;;;;;;;;;;;;;;;;;;4973618;28;20440;-42
2022/08/09 00:35:04;;;;;;;;;;;;;;;;;;4973381;28;20339;-43
2022/08/09 00:37:29;;;;;;;;;;;;;;;;;;4973502;28;19910;-42
2022/08/09 00:39:54;;;;;;;;;;;;;;;;;;4973467;28;19906;-43
2022/08/09 00:42:20;;;;;;;;;;;;;;;;;;4973548;28;20025;-43
2022/08/09 00:44:45;;;;;;;;;;;;;;;;;;4973679;28;19914;-42
2022/08/09 00:47:10;;;;;;;;;;;;;;;;;;4973507;28;20368;-43
2022/08/09 00:49:36;;;;;;;;;;;;;;;;;;4973289;28;19976;-43
2022/08/09 00:52:01;;;;;;;;;;;;;;;;;;4973430;28;19914;-43
2022/08/09 00:54:26;;;;;;;;;;;;;;;;;;4973310;28;19910;-42
2022/08/09 00:56:51;;;;;;;;;;;;;;;;;;4973290;28;19922;-42
2022/08/09 00:59:17;;;;;;;;;;;;;;;;;;4973283;28;19938;-42
2022/08/09 01:01:42;;;;;;;;;;;;;;;;;;4973011;28;19989;-43
2022/08/09 01:04:07;;;;;;;;;;;;;;;;;;4973088;28;19913;-42
2022/08/09 01:06:32;;;;;;;;;;;;;;;;;;4973120;28;20388;-42
2022/08/09 01:08:58;;;;;;;;;;;;;;;;;;4973044;28;20284;-42
2022/08/09 01:11:23;;;;;;;;;;;;;;;;;;4973317;28;19914;-43
2022/08/09 01:13:50;;;;;;;;;;;;;;;;;;4972992;28;19914;-43
2022/08/09 01:16:15;;;;;;;;;;;;;;;;;;4973166;28;19914;-42
2022/08/09 01:18:40;;;;;;;;;;;;;;;;;;4973017;28;19910;-43
2022/08/09 01:21:06;;;;;;;;;;;;;;;;;;4972863;28;19929;-42
2022/08/09 01:23:31;;;;;;;;;;;;;;;;;;4973221;28;20403;-42
2022/08/09 01:25:56;;;;;;;;;;;;;;;;;;4973059;28;20249;-42
2022/08/09 01:28:21;;;;;;;;;;;;;;;;;;4973226;28;19990;-45
2022/08/09 01:30:47;;;;;;;;;;;;;;;;;;4972900;28;19916;-42
2022/08/09 01:33:12;;;;;;;;;;;;;;;;;;4973100;28;19910;-43
2022/08/09 01:35:37;;;;;;;;;;;;;;;;;;4955491;28;20368;-42
2022/08/09 01:38:02;;;;;;;;;;;;;;;;;;4972939;28;19909;-42
2022/08/09 01:40:28;;;;;;;;;;;;;;;;;;4973130;28;20383;-42
2022/08/09 01:42:53;;;;;;;;;;;;;;;;;;4972674;28;20333;-42
2022/08/09 01:45:18;;;;;;;;;;;;;;;;;;4955382;28;19910;-42
2022/08/09 01:47:43;;;;;;;;;;;;;;;;;;4973206;28;19906;-42
2022/08/09 01:50:09;;;;;;;;;;;;;;;;;;4972862;28;20281;-42
2022/08/09 01:52:34;;;;;;;;;;;;;;;;;;4972622;28;19914;-43
2022/08/09 01:55:01;;;;;;;;;;;;;;;;;;4972598;28;19917;-43
2022/08/09 01:57:27;;;;;;;;;;;;;;;;;;4955427;28;20277;-42
2022/08/09 01:59:52;;;;;;;;;;;;;;;;;;4955121;28;19933;-44
2022/08/09 02:02:17;;;;;;;;;;;;;;;;;;4972573;28;19937;-43
2022/08/09 02:04:42;;;;;;;;;;;;;;;;;;4972549;28;20692;-43
2022/08/09 02:07:08;;;;;;;;;;;;;;;;;;4972713;28;19906;-43
2022/08/09 02:09:33;;;;;;;;;;;;;;;;;;4972619;28;19910;-43
2022/08/09 02:11:59;;;;;;;;;;;;;;;;;;4972464;28;19905;-42
2022/08/09 02:14:24;;;;;;;;;;;;;;;;;;4972387;28;19957;-43
2022/08/09 02:16:49;;;;;;;;;;;;;;;;;;4972490;28;19913;-42
2022/08/09 02:19:14;;;;;;;;;;;;;;;;;;4972690;28;19914;-42
2022/08/09 02:21:40;;;;;;;;;;;;;;;;;;4972606;28;19918;-42
2022/08/09 02:24:05;;;;;;;;;;;;;;;;;;4973338;28;20001;-43
2022/08/09 02:26:30;;;;;;;;;;;;;;;;;;4975882;28;19960;-43
2022/08/09 02:28:55;;;;;;;;;;;;;;;;;;4975978;28;19917;-44
2022/08/09 02:31:21;;;;;;;;;;;;;;;;;;4975838;28;19989;-42
2022/08/09 02:33:46;;;;;;;;;;;;;;;;;;4975785;28;19961;-45
2022/08/09 02:36:11;;;;;;;;;;;;;;;;;;4975495;28;19961;-43
2022/08/09 02:38:36;;;;;;;;;;;;;;;;;;4975957;28;19970;-42
2022/08/09 02:41:02;;;;;;;;;;;;;;;;;;4975541;28;19957;-43
2022/08/09 02:43:27;;;;;;;;;;;;;;;;;;4975822;28;19937;-44
2022/08/09 02:45:52;;;;;;;;;;;;;;;;;;4975720;28;20388;-43
2022/08/09 02:48:18;;;;;;;;;;;;;;;;;;4975466;28;19914;-43
2022/08/09 02:50:43;;;;;;;;;;;;;;;;;;4975426;28;19910;-42
2022/08/09 02:53:08;;;;;;;;;;;;;;;;;;4975386;28;19959;-42
2022/08/09 02:55:33;;;;;;;;;;;;;;;;;;4975398;28;20564;-42
2022/08/09 02:57:59;;;;;;;;;;;;;;;;;;4975475;28;19910;-42
2022/08/09 03:00:24;;;;;;;;;;;;;;;;;;4975217;28;20427;-43
2022/08/09 03:02:49;;;;;;;;;;;;;;;;;;4975447;28;19918;-43
2022/08/09 03:05:14;;;;;;;;;;;;;;;;;;4975025;28;20008;-42
2022/08/09 03:07:40;;;;;;;;;;;;;;;;;;4975438;28;19910;-43
2022/08/09 03:10:05;;;;;;;;;;;;;;;;;;4975093;28;19906;-43
2022/08/09 03:12:30;;;;;;;;;;;;;;;;;;4975025;28;19920;-42
2022/08/09 03:14:55;;;;;;;;;;;;;;;;;;4974942;28;19916;-43
2022/08/09 03:17:21;;;;;;;;;;;;;;;;;;4957615;28;20316;-43
2022/08/09 03:19:46;;;;;;;;;;;;;;;;;;4974923;28;20262;-42
2022/08/09 03:22:11;;;;;;;;;;;;;;;;;;4975029;28;19918;-43
2022/08/09 03:24:37;;;;;;;;;;;;;;;;;;4957556;28;19910;-42
2022/08/09 03:27:02;;;;;;;;;;;;;;;;;;4974710;28;20360;-43
2022/08/09 03:29:27;;;;;;;;;;;;;;;;;;4974850;28;19906;-42
2022/08/09 03:31:52;;;;;;;;;;;;;;;;;;4974832;28;19949;-42
2022/08/09 03:34:17;;;;;;;;;;;;;;;;;;4974605;28;19917;-43
2022/08/09 03:36:43;;;;;;;;;;;;;;;;;;4973520;28;19913;-43
2022/08/09 03:39:08;;;;;;;;;;;;;;;;;;4974425;28;19964;-42
2022/08/09 03:41:33;;;;;;;;;;;;;;;;;;4974672;28;19992;-43
2022/08/09 03:43:59;;;;;;;;;;;;;;;;;;4974694;28;19929;-43
2022/08/09 03:46:24;;;;;;;;;;;;;;;;;;4974363;28;19910;-43
2022/08/09 03:48:49;;;;;;;;;;;;;;;;;;4974385;28;19997;-42
2022/08/09 03:51:14;;;;;;;;;;;;;;;;;;4974308;28;19916;-42
2022/08/09 03:53:40;;;;;;;;;;;;;;;;;;4974213;28;19906;-43
2022/08/09 03:56:05;;;;;;;;;;;;;;;;;;4974405;28;19910;-43
2022/08/09 03:58:30;;;;;;;;;;;;;;;;;;4974475;28;20411;-42
2022/08/09 04:00:56;;;;;;;;;;;;;;;;;;4973879;28;19986;-43
2022/08/09 04:03:21;;;;;;;;;;;;;;;;;;4974484;28;20415;-42
2022/08/09 04:05:46;;;;;;;;;;;;;;;;;;4974044;28;19922;-43
2022/08/09 04:08:12;;;;;;;;;;;;;;;;;;4973887;28;20004;-42
2022/08/09 04:10:37;;;;;;;;;;;;;;;;;;4973998;28;20396;-43
2022/08/09 04:13:08;;;;;;;;;;;;;;;;;;4973912;28;19910;-43
2022/08/09 04:15:33;;;;;;;;;;;;;;;;;;4973855;28;19961;-43
2022/08/09 04:17:59;;;;;;;;;;;;;;;;;;4973785;28;20399;-42
2022/08/09 04:20:24;;;;;;;;;;;;;;;;;;4973894;28;19917;-42
2022/08/09 04:22:49;;;;;;;;;;;;;;;;;;4973645;28;19921;-43
2022/08/09 04:25:14;;;;;;;;;;;;;;;;;;4973919;28;20046;-42
2022/08/09 04:27:40;;;;;;;;;;;;;;;;;;4973987;28;20320;-42
2022/08/09 04:30:05;;;;;;;;;;;;;;;;;;4973501;28;19936;-42
2022/08/09 04:32:31;;;;;;;;;;;;;;;;;;4973610;28;19910;-42
2022/08/09 04:34:56;;;;;;;;;;;;;;;;;;4973463;28;19921;-43
2022/08/09 04:37:22;;;;;;;;;;;;;;;;;;4973465;28;19910;-42
2022/08/09 04:39:47;;;;;;;;;;;;;;;;;;4973805;28;19918;-42
2022/08/09 04:42:12;;;;;;;;;;;;;;;;;;4973568;28;20383;-43
2022/08/09 04:44:37;;;;;;;;;;;;;;;;;;4973395;28;20353;-42
2022/08/09 04:47:03;;;;;;;;;;;;;;;;;;4972951;28;20250;-43
2022/08/09 04:49:32;;;;;;;;;;;;;;;;;;4973321;28;19957;-42
2022/08/09 04:51:57;;;;;;;;;;;;;;;;;;4973517;28;19914;-43
2022/08/09 04:54:23;;;;;;;;;;;;;;;;;;4973502;28;19910;-42
2022/08/09 04:56:48;;;;;;;;;;;;;;;;;;4955942;28;19964;-43
2022/08/09 04:59:14;;;;;;;;;;;;;;;;;;4973395;28;19910;-42
2022/08/09 05:01:39;;;;;;;;;;;;;;;;;;4973021;28;19918;-42
2022/08/09 05:04:04;;;;;;;;;;;;;;;;;;4973050;28;19940;-43
2022/08/09 05:06:29;;;;;;;;;;;;;;;;;;4955719;28;20000;-42
2022/08/09 05:08:55;;;;;;;;;;;;;;;;;;4973050;28;20004;-43
2022/08/09 05:11:20;;;;;;;;;;;;;;;;;;4973063;28;19906;-43
2022/08/09 05:13:46;;;;;;;;;;;;;;;;;;4973373;28;19917;-42
2022/08/09 05:16:11;;;;;;;;;;;;;;;;;;4972939;28;19912;-43
2022/08/09 05:18:37;;;;;;;;;;;;;;;;;;4973310;28;19960;-42
2022/08/09 05:21:02;;;;;;;;;;;;;;;;;;4972862;28;20440;-43
2022/08/09 05:23:27;;;;;;;;;;;;;;;;;;4972988;28;19910;-43
2022/08/09 05:25:53;;;;;;;;;;;;;;;;;;4973118;28;19964;-42
2022/08/09 05:28:18;;;;;;;;;;;;;;;;;;4973266;28;19913;-43
2022/08/09 05:30:43;;;;;;;;;;;;;;;;;;4972920;28;20000;-43
2022/08/09 05:33:08;;;;;;;;;;;;;;;;;;4972799;28;19910;-43
2022/08/09 05:35:34;;;;;;;;;;;;;;;;;;4973348;28;19956;-42
2022/08/09 05:37:59;;;;;;;;;;;;;;;;;;4972780;28;20009;-42
2022/08/09 05:40:27;;;;;;;;;;;;;;;;;;4972760;28;20001;-42
2022/08/09 05:42:52;;;;;;;;;;;;;;;;;;4972995;28;19917;-42
2022/08/09 05:45:18;;;;;;;;;;;;;;;;;;4972713;28;20431;-43
2022/08/09 05:47:43;;;;;;;;;;;;;;;;;;4972674;28;19917;-43
2022/08/09 05:50:08;;;;;;;;;;;;;;;;;;4972731;28;19956;-43
2022/08/09 05:52:33;;;;;;;;;;;;;;;;;;4972720;28;19943;-43
2022/08/09 05:54:59;;;;;;;;;;;;;;;;;;4972630;28;19906;-43
2022/08/09 05:57:24;;;;;;;;;;;;;;;;;;4972655;28;19910;-43
2022/08/09 05:59:49;;;;;;;;;;;;;;;;;;4974747;28;19910;-43
2022/08/09 06:02:15;;;;;;;;;;;;;;;;;;4976006;28;19934;-42
2022/08/09 06:04:40;;;;;;;;;;;;;;;;;;4976233;28;20016;-43
2022/08/09 06:07:05;;;;;;;;;;;;;;;;;;4976172;28;19910;-43
2022/08/09 06:09:31;;;;;;;;;;;;;;;;;;4976233;28;19996;-42
2022/08/09 06:11:56;;;;;;;;;;;;;;;;;;4958737;28;19920;-42
2022/08/09 06:14:22;;;;;;;;;;;;;;;;;;4976144;28;19913;-43
2022/08/09 06:16:48;;;;;;;;;;;;;;;;;;4976048;28;20008;-43
2022/08/09 06:19:13;;;;;;;;;;;;;;;;;;4975987;28;19910;-43
2022/08/09 06:21:38;;;;;;;;;;;;;;;;;;4975952;28;19925;-42
2022/08/09 06:24:04;;;;;;;;;;;;;;;;;;4975759;28;19948;-42
2022/08/09 06:26:29;;;;;;;;;;;;;;;;;;4976222;28;19916;-43
2022/08/09 06:28:55;;;;;;;;;;;;;;;;;;4975826;28;20260;-42
2022/08/09 06:31:20;;;;;;;;;;;;;;;;;;4958539;28;19910;-43
2022/08/09 06:33:45;;;;;;;;;;;;;;;;;;4976092;28;19914;-42
2022/08/09 06:36:11;;;;;;;;;;;;;;;;;;4975885;28;19910;-43
2022/08/09 06:38:37;;;;;;;;;;;;;;;;;;4975916;28;19906;-42
2022/08/09 06:41:02;;;;;;;;;;;;;;;;;;4975588;28;19956;-43
2022/08/09 06:43:28;;;;;;;;;;;;;;;;;;4975634;28;19953;-42
2022/08/09 06:45:53;;;;;;;;;;;;;;;;;;4975474;28;19960;-43
2022/08/09 06:48:19;;;;;;;;;;;;;;;;;;4975676;28;20356;-42
2022/08/09 06:50:45;;;;;;;;;;;;;;;;;;4975460;28;20349;-41
2022/08/09 06:53:10;;;;;;;;;;;;;;;;;;4975544;28;19913;-42
2022/08/09 06:55:36;;;;;;;;;;;;;;;;;;4975450;28;19910;-42
2022/08/09 06:58:01;;;;;;;;;;;;;;;;;;4975598;28;19960;-43
2022/08/09 07:00:28;;;;;;;;;;;;;;;;;;4975116;28;20292;-41
2022/08/09 07:02:53;;;;;;;;;;;;;;;;;;4975082;28;19921;-42
2022/08/09 07:05:18;;;;;;;;;;;;;;;;;;4975116;28;19910;-42
2022/08/09 07:07:44;;;;;;;;;;;;;;;;;;4975149;28;19929;-42
2022/08/09 07:10:09;;;;;;;;;;;;;;;;;;4957542;28;19910;-43
2022/08/09 07:12:35;;;;;;;;;;;;;;;;;;4975332;28;19913;-43
2022/08/09 07:15:00;;;;;;;;;;;;;;;;;;4974921;28;19996;-43
2022/08/09 07:17:25;;;;;;;;;;;;;;;;;;4957796;28;20005;-42
2022/08/09 07:19:51;;;;;;;;;;;;;;;;;;4975176;28;19910;-43
2022/08/09 07:22:16;;;;;;;;;;;;;;;;;;4975119;28;19917;-43
2022/08/09 07:24:41;;;;;;;;;;;;;;;;;;4975075;28;20329;-43
2022/08/09 07:27:07;;;;;;;;;;;;;;;;;;4974511;28;20368;-42
2022/08/09 07:29:32;;;;;;;;;;;;;;;;;;4974781;28;19914;-42
2022/08/09 07:31:59;;;;;;;;;;;;;;;;;;4974620;28;19917;-42
2022/08/09 07:34:24;;;;;;;;;;;;;;;;;;4974690;28;19913;-43
2022/08/09 07:36:50;;;;;;;;;;;;;;;;;;4974619;28;20022;-42
2022/08/09 07:39:15;;;;;;;;;;;;;;;;;;4974588;28;19910;-42
2022/08/09 07:41:41;;;;;;;;;;;;;;;;;;4974389;28;19918;-43
2022/08/09 07:44:06;;;;;;;;;;;;;;;;;;4974430;28;19918;-42
2022/08/09 07:46:32;;;;;;;;;;;;;;;;;;4974445;28;20001;-42
2022/08/09 07:48:58;;;;;;;;;;;;;;;;;;4956848;28;19925;-42
2022/08/09 07:51:23;;;;;;;;;;;;;;;;;;4974451;28;19905;-42
2022/08/09 07:53:48;;;;;;;;;;;;;;;;;;4974289;28;20269;-42
2022/08/09 07:56:13;;;;;;;;;;;;;;;;;;4974409;28;19910;-42
2022/08/09 07:58:39;;;;;;;;;;;;;;;;;;4974515;28;20340;-42
2022/08/09 08:01:04;;;;;;;;;;;;;;;;;;4973951;28;20514;-43
2022/08/09 08:03:30;;;;;;;;;;;;;;;;;;4974379;28;19921;-42
2022/08/09 08:05:55;;;;;;;;;;;;;;;;;;4973923;28;20291;-42
2022/08/09 08:08:21;;;;;;;;;;;;;;;;;;4974325;28;20643;-43
2022/08/09 08:10:47;;;;;;;;;;;;;;;;;;4974138;28;20019;-43
2022/08/09 08:13:12;;;;;;;;;;;;;;;;;;4974492;28;20345;-43
2022/08/09 08:15:38;;;;;;;;;;;;;;;;;;4973899;28;20327;-43
2022/08/09 08:18:03;;;;;;;;;;;;;;;;;;4973740;28;20391;-42
2022/08/09 08:20:28;;;;;;;;;;;;;;;;;;4974177;28;20272;-42
2022/08/09 08:22:54;;;;;;;;;;;;;;;;;;4955919;28;20288;-42
2022/08/09 08:25:20;;;;;;;;;;;;;;;;;;4973627;28;19993;-42
2022/08/09 08:27:45;;;;;;;;;;;;;;;;;;4974030;28;19930;-42
2022/08/09 08:30:12;;;;;;;;;;;;;;;;;;4973906;28;19906;-43
2022/08/09 08:32:37;;;;;;;;;;;;;;;;;;4973577;28;20020;-42
2022/08/09 08:35:03;;;;;;;;;;;;;;;;;;4973443;28;20017;-43
2022/08/09 08:37:28;;;;;;;;;;;;;;;;;;4973520;28;20292;-42
2022/08/09 08:39:53;;;;;;;;;;;;;;;;;;4973752;28;19932;-43
2022/08/09 08:42:19;;;;;;;;;;;;;;;;;;4973628;28;20287;-42
2022/08/09 08:44:44;;;;;;;;;;;;;;;;;;4973605;28;20400;-43
2022/08/09 08:47:09;;;;;;;;;;;;;;;;;;4973278;28;19957;-42
2022/08/09 08:49:37;;;;;;;;;;;;;;;;;;4973400;28;19906;-42
2022/08/09 08:52:02;;;;;;;;;;;;;;;;;;4973191;28;19953;-42
2022/08/09 08:54:28;;;;;;;;;;;;;;;;;;4973255;28;19956;-43
2022/08/09 08:56:54;;;;;;;;;;;;;;;;;;4973314;28;19910;-43
2022/08/09 08:59:19;;;;;;;;;;;;;;;;;;4973097;28;19960;-42
2022/08/09 09:01:44;;;;;;;;;;;;;;;;;;4972983;28;19965;-47
2022/08/09 09:04:10;;;;;;;;;;;;;;;;;;4973149;28;19910;-43
2022/08/09 09:06:35;;;;;;;;;;;;;;;;;;4973031;28;20281;-43
2022/08/09 09:09:00;;;;;;;;;;;;;;;;;;4973046;28;19910;-43
2022/08/09 09:11:26;;;;;;;;;;;;;;;;;;4973135;28;19914;-42
2022/08/09 09:13:51;;;;;;;;;;;;;;;;;;4972993;28;19908;-43
2022/08/09 09:16:16;;;;;;;;;;;;;;;;;;4973284;28;19914;-43
2022/08/09 09:18:42;;;;;;;;;;;;;;;;;;4973080;28;20444;-43
2022/08/09 09:21:07;;;;;;;;;;;;;;;;;;4972891;28;19914;-43
2022/08/09 09:23:33;;;;;;;;;;;;;;;;;;4972983;28;20261;-43
2022/08/09 09:25:58;;;;;;;;;;;;;;;;;;4972843;28;19939;-42
2022/08/09 09:28:23;;;;;;;;;;;;;;;;;;4972914;28;19913;-43
2022/08/09 09:30:49;;;;;;;;;;;;;;;;;;4973150;28;19914;-43
2022/08/09 09:33:14;;;;;;;;;;;;;;;;;;4974088;28;19906;-43
2022/08/09 09:35:39;;;;;;;;;;;;;;;;;;4976780;28;19914;-43
2022/08/09 09:38:05;;;;;;;;;;;;;;;;;;4976765;28;20000;-43
2022/08/09 09:40:30;;;;;;;;;;;;;;;;;;4976838;28;19917;-42
2022/08/09 09:42:56;;;;;;;;;;;;;;;;;;4976602;28;19914;-43
2022/08/09 09:45:22;;;;;;;;;;;;;;;;;;4976829;28;19910;-43
2022/08/09 09:47:47;;;;;;;;;;;;;;;;;;4976650;28;20340;-42
2022/08/09 09:50:13;;;;;;;;;;;;;;;;;;4976507;28;20059;-43
2022/08/09 09:52:38;;;;;;;;;;;;;;;;;;4976515;28;19910;-42
2022/08/09 09:55:03;;;;;;;;;;;;;;;;;;4976480;28;19940;-43
2022/08/09 09:57:29;;;;;;;;;;;;;;;;;;4976378;28;19906;-42
2022/08/09 09:59:54;;;;;;;;;;;;;;;;;;4976343;28;20061;-44
2022/08/09 10:02:19;;;;;;;;;;;;;;;;;;4976304;28;19914;-43
2022/08/09 10:04:45;;;;;;;;;;;;;;;;;;4976226;28;20357;-43
2022/08/09 10:07:10;;;;;;;;;;;;;;;;;;4976270;28;19936;-42
2022/08/09 10:09:35;;;;;;;;;;;;;;;;;;4976577;28;19914;-43
2022/08/09 10:12:01;;;;;;;;;;;;;;;;;;4976069;28;20372;-42
2022/08/09 10:14:27;;;;;;;;;;;;;;;;;;4976185;28;20356;-42
2022/08/09 10:16:52;;;;;;;;;;;;;;;;;;4976414;28;19960;-42
2022/08/09 10:19:17;;;;;;;;;;;;;;;;;;4976235;28;20368;-42
2022/08/09 10:21:43;;;;;;;;;;;;;;;;;;4976053;28;19914;-42
2022/08/09 10:24:08;;;;;;;;;;;;;;;;;;4975877;28;19957;-42
2022/08/09 10:26:33;;;;;;;;;;;;;;;;;;4975930;28;19961;-42
2022/08/09 10:28:59;;;;;;;;;;;;;;;;;;4975864;28;19910;-42
2022/08/09 10:31:25;;;;;;;;;;;;;;;;;;4976144;28;19910;-42
2022/08/09 10:33:50;;;;;;;;;;;;;;;;;;4975997;28;19910;-42
2022/08/09 10:36:16;;;;;;;;;;;;;;;;;;4975694;28;20353;-42
2022/08/09 10:38:41;;;;;;;;;;;;;;;;;;4975696;28;19914;-42
2022/08/09 10:41:06;;;;;;;;;;;;;;;;;;4975622;28;19917;-43
2022/08/09 10:43:32;;;;;;;;;;;;;;;;;;4975519;28;19981;-43
2022/08/09 10:45:57;;;;;;;;;;;;;;;;;;4957590;28;19916;-42
2022/08/09 10:48:23;;;;;;;;;;;;;;;;;;4958186;28;20053;-43
2022/08/09 10:51:08;;;;;;;;;;;;;;;;;;4975515;28;20276;-42
2022/08/09 10:53:33;;;;;;;;;;;;;;;;;;4975345;28;19910;-43
2022/08/09 10:55:58;;;;;;;;;;;;;;;;;;4975388;28;19921;-42
2022/08/09 10:58:23;;;;;;;;;;;;;;;;;;4975482;28;20001;-43
2022/08/09 11:00:49;;;;;;;;;;;;;;;;;;4975098;28;19918;-43
2022/08/09 11:03:14;;;;;;;;;;;;;;;;;;4975185;28;20012;-43
2022/08/09 11:05:39;;;;;;;;;;;;;;;;;;4975167;28;19910;-42
2022/08/09 11:08:05;;;;;;;;;;;;;;;;;;4975102;28;19917;-43
2022/08/09 11:10:30;;;;;;;;;;;;;;;;;;4975147;28;19912;-42
2022/08/09 11:12:55;;;;;;;;;;;;;;;;;;4975131;28;19910;-42
2022/08/09 11:15:21;;;;;;;;;;;;;;;;;;4974919;28;19961;-42
2022/08/09 11:17:46;;;;;;;;;;;;;;;;;;4974986;28;19913;-42
2022/08/09 11:20:14;;;;;;;;;;;;;;;;;;4974901;28;20112;-43
2022/08/09 11:22:39;;;;;;;;;;;;;;;;;;4974857;28;19918;-42
2022/08/09 11:25:04;;;;;;;;;;;;;;;;;;4974820;28;19949;-42
2022/08/09 11:27:30;;;;;;;;;;;;;;;;;;4975134;28;20281;-42
2022/08/09 11:29:55;;;;;;;;;;;;;;;;;;4974755;28;20266;-42
2022/08/09 11:32:20;;;;;;;;;;;;;;;;;;4957355;28;19910;-42
2022/08/09 11:34:47;;;;;;;;;;;;;;;;;;4957410;28;19913;-43
2022/08/09 11:37:13;;;;;;;;;;;;;;;;;;4974541;28;19909;-42
2022/08/09 11:39:38;;;;;;;;;;;;;;;;;;4974951;28;20017;-43
2022/08/09 11:42:04;;;;;;;;;;;;;;;;;;4974470;28;19918;-42
2022/08/09 11:44:29;;;;;;;;;;;;;;;;;;4974433;28;19912;-42
2022/08/09 11:46:55;;;;;;;;;;;;;;;;;;4974529;28;19950;-42
2022/08/09 11:49:21;;;;;;;;;;;;;;;;;;4974023;28;19906;-42
2022/08/09 11:51:46;;;;;;;;;;;;;;;;;;4974525;28;19910;-42
2022/08/09 11:54:12;;;;;;;;;;;;;;;;;;4956976;28;20320;-42
2022/08/09 11:56:37;;;;;;;;;;;;;;;;;;4973344;28;19914;-42
2022/08/09 11:59:03;;;;;;;;;;;;;;;;;;4974484;28;19906;-43
2022/08/09 12:04:26;;;;;;;;;;;;;;;;;;4993728;28;20256;-43
2022/08/09 12:06:52;;;;;;;;;;;;;;;;;;4993672;28;19921;-43
2022/08/09 12:09:17;;;;;;;;;;;;;;;;;;4993523;28;19913;-41
2022/08/09 12:11:42;;;;;;;;;;;;;;;;;;4993838;28;19930;-43
2022/08/09 12:14:09;;;;;;;;;;;;;;;;;;4993704;28;19914;-43
2022/08/09 12:16:35;;;;;;;;;;;;;;;;;;4993665;28;19910;-42
2022/08/09 12:19:10;;;;;;;;;;;;;;;;;;5089575;27;19919;-41
2022/08/09 12:21:36;;;;;;;;;;;;;;;;;;5089588;28;19942;-41
2022/08/09 12:24:01;;;;;;;;;;;;;;;;;;5089367;28;20346;-42
2022/08/09 12:26:26;;;;;;;;;;;;;;;;;;5089737;28;19966;-42
2022/08/09 12:28:52;;;;;;;;;;;;;;;;;;5089480;28;20366;-41
2022/08/09 12:31:17;;;;;;;;;;;;;;;;;;5087864;28;19916;-41
2022/08/09 12:33:43;;;;;;;;;;;;;;;;;;5089491;28;19999;-42
2022/08/09 12:36:09;;;;;;;;;;;;;;;;;;5089093;28;19912;-41
2022/08/09 12:38:34;;;;;;;;;;;;;;;;;;5089151;28;20358;-41
2022/08/09 12:41:00;;;;;;;;;;;;;;;;;;5089327;28;19912;-41
2022/08/09 12:43:25;;;;;;;;;;;;;;;;;;5089342;28;19909;-42
2022/08/09 12:45:51;;;;;;;;;;;;;;;;;;5089036;28;20525;-41
2022/08/09 12:48:16;;;;;;;;;;;;;;;;;;5088960;28;19915;-42
2022/08/09 12:50:42;;;;;;;;;;;;;;;;;;5088934;28;19930;-41
2022/08/09 12:53:07;;;;;;;;;;;;;;;;;;5088842;28;19909;-41
2022/08/09 12:55:32;;;;;;;;;;;;;;;;;;5089145;28;19920;-42
2022/08/09 12:57:58;;;;;;;;;;;;;;;;;;5088907;28;19997;-42
2022/08/09 13:00:23;;;;;;;;;;;;;;;;;;5088664;28;19952;-41
2022/08/09 13:02:48;;;;;;;;;;;;;;;;;;5088693;28;19939;-42
2022/08/09 13:05:14;;;;;;;;;;;;;;;;;;5088484;28;20296;-41
2022/08/09 13:07:39;;;;;;;;;;;;;;;;;;5088569;28;19938;-42
2022/08/09 13:10:05;;;;;;;;;;;;;;;;;;5088743;28;19919;-42
2022/08/09 13:12:30;;;;;;;;;;;;;;;;;;5088486;28;19956;-41
2022/08/09 13:14:55;;;;;;;;;;;;;;;;;;5088480;28;19962;-41
2022/08/09 13:17:21;;;;;;;;;;;;;;;;;;5093571;28;19973;-41
2022/08/09 13:19:46;;;;;;;;;;;;;;;;;;5107335;28;20385;-42
2022/08/09 13:22:12;;;;;;;;;;;;;;;;;;5108580;28;19915;-41
2022/08/09 13:24:37;;;;;;;;;;;;;;;;;;5107523;28;20285;-41
2022/08/09 13:27:02;;;;;;;;;;;;;;;;;;5090267;28;20357;-42
2022/08/09 13:29:28;;;;;;;;;;;;;;;;;;5100769;28;19919;-41
2022/08/09 13:31:53;;;;;;;;;;;;;;;;;;5095167;28;19908;-41
2022/08/09 13:34:19;;;;;;;;;;;;;;;;;;5094617;28;19916;-41
2022/08/09 13:36:44;;;;;;;;;;;;;;;;;;5094836;28;19912;-41
2022/08/09 13:39:09;;;;;;;;;;;;;;;;;;5094672;28;20010;-42
2022/08/09 13:41:35;;;;;;;;;;;;;;;;;;5094698;28;19912;-41
2022/08/09 13:44:00;;;;;;;;;;;;;;;;;;5094585;28;20009;-41
2022/08/09 13:46:25;;;;;;;;;;;;;;;;;;5094672;28;20045;-48
2022/08/09 13:48:51;;;;;;;;;;;;;;;;;;5094603;28;19916;-42
2022/08/09 13:51:16;;;;;;;;;;;;;;;;;;5094746;28;19928;-42
2022/08/09 13:53:41;;;;;;;;;;;;;;;;;;5094503;28;20003;-42
2022/08/09 13:56:06;;;;;;;;;;;;;;;;;;5094695;28;19909;-42
2022/08/09 13:58:32;;;;;;;;;;;;;;;;;;5094326;28;20373;-42
2022/08/09 14:00:57;;;;;;;;;;;;;;;;;;5094625;28;19908;-41
2022/08/09 14:03:22;;;;;;;;;;;;;;;;;;5094544;28;20017;-42
2022/08/09 14:05:48;;;;;;;;;;;;;;;;;;5094378;28;19948;-42
2022/08/09 14:08:13;;;;;;;;;;;;;;;;;;5094206;28;20270;-42
2022/08/09 14:10:38;;;;;;;;;;;;;;;;;;5094413;28;19998;-42
2022/08/09 14:13:06;;;;;;;;;;;;;;;;;;5094075;28;19912;-42
2022/08/09 14:15:31;;;;;;;;;;;;;;;;;;5092845;28;19916;-41
2022/08/09 14:17:57;;;;;;;;;;;;;;;;;;5093757;28;19920;-42
2022/08/09 14:20:22;;;;;;;;;;;;;;;;;;5094260;28;19912;-42
2022/08/09 14:22:47;;;;;;;;;;;;;;;;;;5094208;28;20247;-42
2022/08/09 14:25:13;;;;;;;;;;;;;;;;;;5093800;28;20304;-42
2022/08/09 14:27:38;;;;;;;;;;;;;;;;;;5093932;28;19958;-42
2022/08/09 14:30:03;;;;;;;;;;;;;;;;;;5093948;28;19919;-42
2022/08/09 14:32:29;;;;;;;;;;;;;;;;;;5093778;28;19923;-42
2022/08/09 14:34:54;;;;;;;;;;;;;;;;;;5093745;28;19994;-42
2022/08/09 14:37:19;;;;;;;;;;;;;;;;;;5093716;28;19920;-41
2022/08/09 14:39:45;;;;;;;;;;;;;;;;;;5093569;28;19908;-42
2022/08/09 14:42:10;;;;;;;;;;;;;;;;;;5092415;28;19919;-41
2022/08/09 14:44:35;;;;;;;;;;;;;;;;;;5093828;28;19908;-42
2022/08/09 14:47:01;;;;;;;;;;;;;;;;;;5093430;28;20365;-42
2022/08/09 14:49:26;;;;;;;;;;;;;;;;;;5093475;28;19923;-42
2022/08/09 14:51:51;;;;;;;;;;;;;;;;;;5093222;28;19916;-42
2022/08/09 14:54:17;;;;;;;;;;;;;;;;;;5093272;28;19911;-42
2022/08/09 14:56:42;;;;;;;;;;;;;;;;;;5093277;28;20002;-42
2022/08/09 14:59:08;;;;;;;;;;;;;;;;;;5093032;28;19923;-41
2022/08/09 15:01:33;;;;;;;;;;;;;;;;;;5093210;28;19916;-42
2022/08/09 15:03:59;;;;;;;;;;;;;;;;;;5093021;28;19920;-41
2022/08/09 15:06:24;;;;;;;;;;;;;;;;;;5093026;28;20373;-41
2022/08/09 15:08:49;;;;;;;;;;;;;;;;;;5093059;28;19912;-41
2022/08/09 15:11:15;;;;;;;;;;;;;;;;;;5093277;28;19916;-42
2022/08/09 15:13:40;;;;;;;;;;;;;;;;;;5092810;28;20580;-41
2022/08/09 15:16:05;;;;;;;;;;;;;;;;;;5092942;28;19935;-41
2022/08/09 15:18:31;;;;;;;;;;;;;;;;;;5091386;28;19927;-42
2022/08/09 15:20:56;;;;;;;;;;;;;;;;;;5092798;28;19982;-46
2022/08/09 15:23:21;;;;;;;;;;;;;;;;;;5093000;28;20011;-42
2022/08/09 15:25:46;;;;;;;;;;;;;;;;;;5092844;28;20015;-41
2022/08/09 15:28:12;;;;;;;;;;;;;;;;;;5092577;28;20065;-41
2022/08/09 15:30:37;;;;;;;;;;;;;;;;;;5092692;28;19916;-41
2022/08/09 15:33:02;;;;;;;;;;;;;;;;;;5092545;28;20021;-42
2022/08/09 15:35:28;;;;;;;;;;;;;;;;;;5092452;28;19916;-42
2022/08/09 15:37:53;;;;;;;;;;;;;;;;;;5092793;28;19923;-41
2022/08/09 15:40:19;;;;;;;;;;;;;;;;;;5092434;28;19916;-42
2022/08/09 15:42:44;;;;;;;;;;;;;;;;;;5092665;28;19915;-41
2022/08/09 15:45:10;;;;;;;;;;;;;;;;;;5092345;28;20396;-41
2022/08/09 15:47:35;;;;;;;;;;;;;;;;;;5092539;28;19954;-41
2022/08/09 15:50:00;;;;;;;;;;;;;;;;;;5092549;28;19916;-42
2022/08/09 15:52:26;;;;;;;;;;;;;;;;;;5092138;28;20004;-41
2022/08/09 15:54:54;;;;;;;;;;;;;;;;;;5092247;28;20400;-41
2022/08/09 15:57:19;;;;;;;;;;;;;;;;;;5092104;28;19916;-41
2022/08/09 15:59:45;;;;;;;;;;;;;;;;;;5092287;28;19961;-42
2022/08/09 16:02:10;;;;;;;;;;;;;;;;;;5092148;28;19937;-41
2022/08/09 16:04:36;;;;;;;;;;;;;;;;;;5092409;28;20316;-41
2022/08/09 16:07:02;;;;;;;;;;;;;;;;;;5092042;28;19980;-41
2022/08/09 16:09:27;;;;;;;;;;;;;;;;;;5092260;28;19924;-42
2022/08/09 16:11:53;;;;;;;;;;;;;;;;;;5092295;28;19909;-42
2022/08/09 16:14:19;;;;;;;;;;;;;;;;;;5091986;28;19944;-42
2022/08/09 16:16:44;;;;;;;;;;;;;;;;;;5092042;28;19908;-41
2022/08/09 16:19:10;;;;;;;;;;;;;;;;;;5091718;28;19924;-42
2022/08/09 16:21:35;;;;;;;;;;;;;;;;;;5092289;28;20308;-41
2022/08/09 16:24:00;;;;;;;;;;;;;;;;;;5091843;28;20043;-42
2022/08/09 16:26:26;;;;;;;;;;;;;;;;;;5091965;28;19912;-42
2022/08/09 16:28:51;;;;;;;;;;;;;;;;;;5091970;28;19932;-42
2022/08/09 16:31:17;;;;;;;;;;;;;;;;;;5091752;28;19931;-42
2022/08/09 16:33:42;;;;;;;;;;;;;;;;;;5091789;28;20010;-42
2022/08/09 16:36:08;;;;;;;;;;;;;;;;;;5092077;28;19916;-42